createdAt,value
2016-12-06T00:00:32.333Z,0
2016-12-06T00:01:40.891Z,0
2016-12-06T00:02:49.453Z,0
2016-12-06T00:03:58.365Z,0
2016-12-06T00:05:07.241Z,0
2016-12-06T00:06:16.119Z,0
2016-12-06T00:07:24.677Z,0
2016-12-06T00:08:33.558Z,0
2016-12-06T00:09:42.470Z,0
2016-12-06T00:10:51.029Z,0
2016-12-06T00:11:59.906Z,0
2016-12-06T00:13:08.786Z,0
2016-12-06T00:14:17.981Z,0
2016-12-06T00:15:27.541Z,0
2016-12-06T00:16:36.733Z,0
2016-12-06T00:17:45.294Z,0
2016-12-06T00:18:53.854Z,0
2016-12-06T00:20:02.729Z,0
2016-12-06T00:21:11.661Z,0
2016-12-06T00:22:20.221Z,0
2016-12-06T00:23:29.097Z,0
2016-12-06T00:24:37.653Z,0
2016-12-06T00:25:46.531Z,0
2016-12-06T00:26:55.445Z,0
2016-12-06T00:28:04.003Z,0
2016-12-06T00:29:12.925Z,0
2016-12-06T00:30:21.801Z,0
2016-12-06T00:31:30.361Z,0
2016-12-06T00:32:39.292Z,0
2016-12-06T00:33:47.880Z,0
2016-12-06T00:34:56.764Z,0
2016-12-06T00:36:05.650Z,0
2016-12-06T00:37:14.208Z,0
2016-12-06T00:38:23.213Z,0
2016-12-06T00:39:32.728Z,0
2016-12-06T00:40:41.284Z,0
2016-12-06T00:41:50.164Z,0
2016-12-06T00:42:58.730Z,0
2016-12-06T00:44:07.688Z,0
2016-12-06T00:45:16.881Z,0
2016-12-06T00:46:25.777Z,0
2016-12-06T00:47:34.976Z,0
2016-12-06T00:48:43.534Z,0
2016-12-06T00:49:52.462Z,0
2016-12-06T00:51:01.018Z,0
2016-12-06T00:52:09.900Z,0
2016-12-06T00:53:19.094Z,0
2016-12-06T00:54:27.657Z,0
2016-12-06T00:55:37.158Z,0
2016-12-06T00:56:45.722Z,0
2016-12-06T00:57:54.279Z,0
2016-12-06T00:59:02.842Z,0
2016-12-06T01:00:11.749Z,0
2016-12-06T01:01:21.008Z,0
2016-12-06T01:02:29.572Z,0
2016-12-06T01:03:38.135Z,0
2016-12-06T01:04:46.698Z,0
2016-12-06T01:05:55.573Z,0
2016-12-06T01:07:04.503Z,0
2016-12-06T01:08:13.385Z,0
2016-12-06T01:09:22.262Z,0
2016-12-06T01:10:31.142Z,0
2016-12-06T01:11:39.700Z,0
2016-12-06T01:12:49.268Z,0
2016-12-06T01:13:58.142Z,0
2016-12-06T01:15:07.338Z,0
2016-12-06T01:16:17.172Z,0
2016-12-06T01:17:26.049Z,0
2016-12-06T01:18:35.380Z,0
2016-12-06T01:19:43.980Z,0
2016-12-06T01:20:52.542Z,0
2016-12-06T01:22:01.422Z,0
2016-12-06T01:23:09.982Z,0
2016-12-06T01:24:19.313Z,0
2016-12-06T01:25:27.872Z,0
2016-12-06T01:26:36.750Z,0
2016-12-06T01:27:45.629Z,0
2016-12-06T01:28:54.183Z,0
2016-12-06T01:30:03.039Z,0
2016-12-06T01:31:12.232Z,0
2016-12-06T01:32:21.112Z,0
2016-12-06T01:33:29.670Z,0
2016-12-06T01:34:38.230Z,0
2016-12-06T01:35:47.143Z,0
2016-12-06T01:36:56.362Z,0
2016-12-06T01:38:04.923Z,0
2016-12-06T01:39:13.799Z,0
2016-12-06T01:40:22.992Z,0
2016-12-06T01:41:31.853Z,0
2016-12-06T01:42:40.437Z,0
2016-12-06T01:43:49.318Z,0
2016-12-06T01:44:57.878Z,0
2016-12-06T01:46:06.441Z,0
2016-12-06T01:47:15.051Z,0
2016-12-06T01:48:23.609Z,0
2016-12-06T01:49:32.174Z,0
2016-12-06T01:50:41.064Z,0
2016-12-06T01:51:49.623Z,0
2016-12-06T01:52:58.898Z,0
2016-12-06T01:54:07.809Z,0
2016-12-06T01:55:16.369Z,0
2016-12-06T01:56:24.931Z,0
2016-12-06T01:57:33.813Z,0
2016-12-06T01:58:42.792Z,0
2016-12-06T01:59:51.988Z,0
2016-12-06T02:01:00.862Z,0
2016-12-06T02:02:09.736Z,0
2016-12-06T02:03:18.293Z,0
2016-12-06T02:04:26.900Z,0
2016-12-06T02:05:35.462Z,0
2016-12-06T02:06:44.023Z,0
2016-12-06T02:07:52.582Z,0
2016-12-06T02:09:01.791Z,0
2016-12-06T02:10:11.039Z,0
2016-12-06T02:11:19.609Z,0
2016-12-06T02:12:28.812Z,0
2016-12-06T02:13:37.704Z,0
2016-12-06T02:14:46.259Z,0
2016-12-06T02:15:55.166Z,0
2016-12-06T02:17:04.043Z,0
2016-12-06T02:18:12.926Z,0
2016-12-06T02:19:22.144Z,0
2016-12-06T02:20:30.704Z,0
2016-12-06T02:21:39.950Z,0
2016-12-06T02:22:48.510Z,0
2016-12-06T02:23:57.069Z,0
2016-12-06T02:25:05.625Z,0
2016-12-06T02:26:14.502Z,0
2016-12-06T02:27:23.112Z,0
2016-12-06T02:28:31.992Z,0
2016-12-06T02:29:40.872Z,0
2016-12-06T02:30:49.435Z,0
2016-12-06T02:31:57.994Z,0
2016-12-06T02:33:06.973Z,0
2016-12-06T02:34:15.857Z,0
2016-12-06T02:35:24.768Z,0
2016-12-06T02:36:33.962Z,0
2016-12-06T02:37:42.517Z,0
2016-12-06T02:38:51.497Z,0
2016-12-06T02:40:00.373Z,0
2016-12-06T02:41:08.936Z,0
2016-12-06T02:42:17.817Z,0
2016-12-06T02:43:26.695Z,0
2016-12-06T02:44:36.242Z,0
2016-12-06T02:45:44.800Z,0
2016-12-06T02:46:53.359Z,0
2016-12-06T02:48:02.561Z,0
2016-12-06T02:49:11.441Z,0
2016-12-06T02:50:20.547Z,0
2016-12-06T02:51:29.108Z,0
2016-12-06T02:52:37.989Z,0
2016-12-06T02:53:46.551Z,0
2016-12-06T02:54:55.112Z,0
2016-12-06T02:56:04.347Z,0
2016-12-06T02:57:13.224Z,0
2016-12-06T02:58:22.105Z,0
2016-12-06T02:59:30.667Z,0
2016-12-06T03:00:39.231Z,0
2016-12-06T03:01:48.157Z,0
2016-12-06T03:02:57.038Z,0
2016-12-06T03:04:05.915Z,0
2016-12-06T03:05:15.109Z,0
2016-12-06T03:06:24.306Z,0
2016-12-06T03:07:32.967Z,0
2016-12-06T03:08:41.526Z,0
2016-12-06T03:09:50.406Z,0
2016-12-06T03:10:59.288Z,0
2016-12-06T03:12:07.851Z,0
2016-12-06T03:13:17.131Z,0
2016-12-06T03:14:26.006Z,0
2016-12-06T03:15:34.886Z,0
2016-12-06T03:16:43.449Z,0
2016-12-06T03:17:52.328Z,0
2016-12-06T03:19:00.941Z,0
2016-12-06T03:20:09.823Z,0
2016-12-06T03:21:18.384Z,0
2016-12-06T03:22:26.947Z,0
2016-12-06T03:23:36.143Z,0
2016-12-06T03:24:44.751Z,0
2016-12-06T03:25:53.314Z,0
2016-12-06T03:27:01.882Z,0
2016-12-06T03:28:10.444Z,0
2016-12-06T03:29:19.964Z,0
2016-12-06T03:30:28.925Z,0
2016-12-06T03:31:37.486Z,0
2016-12-06T03:32:46.365Z,0
2016-12-06T03:33:54.933Z,0
2016-12-06T03:35:03.842Z,0
2016-12-06T03:36:13.072Z,0
2016-12-06T03:37:21.636Z,0
2016-12-06T03:38:30.196Z,0
2016-12-06T03:39:38.756Z,0
2016-12-06T03:40:47.313Z,0
2016-12-06T03:41:56.540Z,0
2016-12-06T03:43:05.420Z,0
2016-12-06T03:44:13.993Z,0
2016-12-06T03:45:22.553Z,0
2016-12-06T03:46:31.432Z,0
2016-12-06T03:47:40.073Z,0
2016-12-06T03:48:49.272Z,0
2016-12-06T03:49:58.154Z,0
2016-12-06T03:51:07.034Z,0
2016-12-06T03:52:15.593Z,0
2016-12-06T03:53:24.820Z,0
2016-12-06T03:54:33.384Z,0
2016-12-06T03:55:41.944Z,0
2016-12-06T03:56:50.827Z,0
2016-12-06T03:58:00.022Z,0
2016-12-06T03:59:09.671Z,0
2016-12-06T04:00:18.229Z,0
2016-12-06T04:01:26.789Z,0
2016-12-06T04:02:35.347Z,0
2016-12-06T04:03:43.910Z,0
2016-12-06T04:04:53.164Z,0
2016-12-06T04:06:01.722Z,0
2016-12-06T04:07:10.283Z,0
2016-12-06T04:08:19.168Z,0
2016-12-06T04:09:27.731Z,0
2016-12-06T04:10:36.587Z,0
2016-12-06T04:11:45.787Z,0
2016-12-06T04:12:54.671Z,0
2016-12-06T04:14:03.551Z,0
2016-12-06T04:15:12.749Z,0
2016-12-06T04:16:21.611Z,0
2016-12-06T04:17:30.174Z,0
2016-12-06T04:18:38.733Z,0
2016-12-06T04:19:47.617Z,0
2016-12-06T04:20:56.498Z,0
2016-12-06T04:22:05.476Z,0
2016-12-06T04:23:14.351Z,0
2016-12-06T04:24:22.914Z,0
2016-12-06T04:25:31.791Z,0
2016-12-06T04:26:40.357Z,0
2016-12-06T04:27:49.282Z,0
2016-12-06T04:28:58.159Z,0
2016-12-06T04:30:07.037Z,0
2016-12-06T04:31:16.234Z,0
2016-12-06T04:32:24.792Z,0
2016-12-06T04:33:33.757Z,0
2016-12-06T04:34:42.317Z,0
2016-12-06T04:35:50.872Z,0
2016-12-06T04:36:59.748Z,0
2016-12-06T04:38:08.311Z,0
2016-12-06T04:39:16.921Z,0
2016-12-06T04:40:25.477Z,0
2016-12-06T04:41:34.037Z,0
2016-12-06T04:42:42.921Z,0
2016-12-06T04:43:52.115Z,0
2016-12-06T04:45:01.024Z,0
2016-12-06T04:46:09.906Z,0
2016-12-06T04:47:18.495Z,0
2016-12-06T04:48:28.010Z,0
2016-12-06T04:49:37.205Z,0
2016-12-06T04:50:45.819Z,0
2016-12-06T04:51:54.378Z,0
2016-12-06T04:53:02.942Z,0
2016-12-06T04:54:11.818Z,0
2016-12-06T04:55:20.377Z,0
2016-12-06T04:56:29.287Z,0
2016-12-06T04:57:38.173Z,0
2016-12-06T04:58:46.728Z,0
2016-12-06T04:59:55.609Z,0
2016-12-06T05:01:04.169Z,0
2016-12-06T05:02:12.780Z,0
2016-12-06T05:03:21.663Z,0
2016-12-06T05:04:30.226Z,0
2016-12-06T05:05:38.791Z,0
2016-12-06T05:06:47.351Z,0
2016-12-06T05:07:56.007Z,0
2016-12-06T05:09:04.566Z,0
2016-12-06T05:10:13.127Z,0
2016-12-06T05:11:21.686Z,0
2016-12-06T05:12:30.254Z,0
2016-12-06T05:13:39.228Z,0
2016-12-06T05:14:48.104Z,0
2016-12-06T05:15:56.667Z,0
2016-12-06T05:17:05.230Z,0
2016-12-06T05:18:14.110Z,0
2016-12-06T05:19:23.348Z,0
2016-12-06T05:20:32.579Z,0
2016-12-06T05:21:41.137Z,0
2016-12-06T05:22:50.022Z,0
2016-12-06T05:23:58.582Z,0
2016-12-06T05:25:07.489Z,0
2016-12-06T05:26:16.373Z,0
2016-12-06T05:27:25.286Z,0
2016-12-06T05:28:33.854Z,0
2016-12-06T05:29:43.368Z,0
2016-12-06T05:30:52.276Z,0
2016-12-06T05:32:01.476Z,0
2016-12-06T05:33:10.069Z,0
2016-12-06T05:34:18.630Z,0
2016-12-06T05:35:27.505Z,0
2016-12-06T05:36:36.113Z,0
2016-12-06T05:37:45.311Z,0
2016-12-06T05:38:53.875Z,0
2016-12-06T05:40:02.435Z,0
2016-12-06T05:41:11.000Z,0
2016-12-06T05:42:19.927Z,0
2016-12-06T05:43:29.439Z,0
2016-12-06T05:44:38.003Z,0
2016-12-06T05:45:46.567Z,0
2016-12-06T05:46:55.132Z,0
2016-12-06T05:48:03.774Z,0
2016-12-06T05:49:12.335Z,0
2016-12-06T05:50:20.930Z,0
2016-12-06T05:51:29.492Z,0
2016-12-06T05:52:38.051Z,0
2016-12-06T05:53:47.409Z,0
2016-12-06T05:54:55.969Z,0
2016-12-06T05:56:04.530Z,0
2016-12-06T05:57:13.409Z,0
2016-12-06T05:58:21.977Z,0
2016-12-06T05:59:31.266Z,0
2016-12-06T06:00:39.829Z,0
2016-12-06T06:01:48.396Z,0
2016-12-06T06:02:57.273Z,0
2016-12-06T06:04:05.847Z,0
2016-12-06T06:05:15.397Z,0
2016-12-06T06:06:23.957Z,0
2016-12-06T06:07:32.516Z,0
2016-12-06T06:08:41.080Z,0
2016-12-06T06:09:50.281Z,0
2016-12-06T06:10:59.826Z,0
2016-12-06T06:12:08.388Z,0
2016-12-06T06:13:17.276Z,0
2016-12-06T06:14:26.474Z,0
2016-12-06T06:15:35.039Z,0
2016-12-06T06:16:43.900Z,0
2016-12-06T06:17:52.458Z,0
2016-12-06T06:19:01.016Z,0
2016-12-06T06:20:09.898Z,0
2016-12-06T06:21:18.772Z,0
2016-12-06T06:22:27.387Z,0
2016-12-06T06:23:35.953Z,0
2016-12-06T06:24:45.151Z,0
2016-12-06T06:25:54.025Z,0
2016-12-06T06:27:02.585Z,0
2016-12-06T06:28:11.494Z,0
2016-12-06T06:29:20.058Z,0
2016-12-06T06:30:29.569Z,0
2016-12-06T06:31:38.129Z,0
2016-12-06T06:32:46.690Z,0
2016-12-06T06:33:55.298Z,0
2016-12-06T06:35:04.177Z,0
2016-12-06T06:36:12.761Z,0
2016-12-06T06:37:21.318Z,0
2016-12-06T06:38:29.878Z,0
2016-12-06T06:39:39.204Z,0
2016-12-06T06:40:47.764Z,0
2016-12-06T06:41:56.325Z,0
2016-12-06T06:43:04.889Z,0
2016-12-06T06:44:13.449Z,4
2016-12-06T06:45:22.129Z,0
2016-12-06T06:46:30.691Z,0
2016-12-06T06:47:40.202Z,4
2016-12-06T06:48:49.081Z,4
2016-12-06T06:49:57.645Z,4
2016-12-06T06:51:06.572Z,4
2016-12-06T06:52:15.135Z,8
2016-12-06T06:53:23.701Z,8
2016-12-06T06:54:32.578Z,8
2016-12-06T06:55:41.773Z,8
2016-12-06T06:56:50.435Z,12
2016-12-06T06:57:59.321Z,12
2016-12-06T06:59:08.198Z,12
2016-12-06T07:00:16.761Z,16
2016-12-06T07:01:25.960Z,20
2016-12-06T07:02:34.867Z,20
2016-12-06T07:03:43.428Z,24
2016-12-06T07:04:51.987Z,28
2016-12-06T07:06:00.564Z,32
2016-12-06T07:07:09.162Z,40
2016-12-06T07:08:18.082Z,44
2016-12-06T07:09:26.964Z,52
2016-12-06T07:10:35.852Z,60
2016-12-06T07:11:44.730Z,68
2016-12-06T07:12:53.610Z,80
2016-12-06T07:14:02.595Z,88
2016-12-06T07:15:11.476Z,100
2016-12-06T07:16:20.354Z,108
2016-12-06T07:17:28.913Z,124
2016-12-06T07:18:37.471Z,136
2016-12-06T07:19:46.088Z,156
2016-12-06T07:20:54.970Z,168
2016-12-06T07:22:03.537Z,188
2016-12-06T07:23:12.417Z,208
2016-12-06T07:24:21.298Z,260
2016-12-06T07:25:29.912Z,288
2016-12-06T07:26:38.789Z,312
2016-12-06T07:27:47.365Z,336
2016-12-06T07:28:56.247Z,364
2016-12-06T07:30:04.807Z,392
2016-12-06T07:31:13.987Z,420
2016-12-06T07:32:22.868Z,456
2016-12-06T07:33:31.746Z,492
2016-12-06T07:34:40.311Z,524
2016-12-06T07:35:49.189Z,560
2016-12-06T07:36:58.102Z,592
2016-12-06T07:38:06.986Z,628
2016-12-06T07:39:15.552Z,660
2016-12-06T07:40:24.751Z,696
2016-12-06T07:41:33.630Z,728
2016-12-06T07:42:42.545Z,760
2016-12-06T07:43:51.109Z,800
2016-12-06T07:44:59.668Z,844
2016-12-06T07:46:08.549Z,900
2016-12-06T07:47:17.747Z,964
2016-12-06T07:48:27.000Z,1032
2016-12-06T07:49:35.880Z,1100
2016-12-06T07:50:44.443Z,1144
2016-12-06T07:51:53.009Z,1200
2016-12-06T07:53:01.570Z,1252
2016-12-06T07:54:10.874Z,1308
2016-12-06T07:55:20.074Z,1372
2016-12-06T07:56:28.957Z,1448
2016-12-06T07:57:37.523Z,1488
2016-12-06T07:58:46.083Z,1532
2016-12-06T07:59:55.026Z,1596
2016-12-06T08:01:03.906Z,1664
2016-12-06T08:02:13.103Z,1724
2016-12-06T08:03:21.666Z,1768
2016-12-06T08:04:30.875Z,1828
2016-12-06T08:05:40.104Z,1880
2016-12-06T08:06:48.667Z,1920
2016-12-06T08:07:57.869Z,1948
2016-12-06T08:09:06.751Z,1996
2016-12-06T08:10:15.315Z,2036
2016-12-06T08:11:24.512Z,2076
2016-12-06T08:12:33.090Z,2120
2016-12-06T08:13:42.286Z,2148
2016-12-06T08:14:50.848Z,2180
2016-12-06T08:15:59.725Z,2224
2016-12-06T08:17:09.282Z,2280
2016-12-06T08:18:17.845Z,2320
2016-12-06T08:19:26.735Z,2364
2016-12-06T08:20:35.297Z,2392
2016-12-06T08:21:44.811Z,2396
2016-12-06T08:22:53.989Z,2396
2016-12-06T08:24:03.185Z,2392
2016-12-06T08:25:12.062Z,2360
2016-12-06T08:26:20.945Z,2380
2016-12-06T08:27:29.823Z,2404
2016-12-06T08:28:38.756Z,2436
2016-12-06T08:29:47.956Z,2464
2016-12-06T08:30:56.527Z,2492
2016-12-06T08:32:05.090Z,2524
2016-12-06T08:33:13.653Z,2548
2016-12-06T08:34:22.268Z,2580
2016-12-06T08:35:31.152Z,2612
2016-12-06T08:36:40.355Z,2640
2016-12-06T08:37:49.245Z,2664
2016-12-06T08:38:58.122Z,2688
2016-12-06T08:40:07.048Z,2716
2016-12-06T08:41:16.245Z,2740
2016-12-06T08:42:24.804Z,2768
2016-12-06T08:43:33.371Z,2788
2016-12-06T08:44:42.249Z,2816
2016-12-06T08:45:51.164Z,2844
2016-12-06T08:46:59.735Z,2876
2016-12-06T08:48:08.322Z,2896
2016-12-06T08:49:16.881Z,2908
2016-12-06T08:50:25.762Z,2928
2016-12-06T08:51:34.373Z,2940
2016-12-06T08:52:43.252Z,2952
2016-12-06T08:53:52.130Z,2972
2016-12-06T08:55:01.679Z,2992
2016-12-06T08:56:10.560Z,3012
2016-12-06T08:57:19.826Z,3032
2016-12-06T08:58:28.708Z,3052
2016-12-06T08:59:37.586Z,3064
2016-12-06T09:00:46.471Z,3080
2016-12-06T09:01:55.039Z,3096
2016-12-06T09:03:03.656Z,3116
2016-12-06T09:04:12.541Z,3136
2016-12-06T09:05:21.424Z,3152
2016-12-06T09:06:29.983Z,3168
2016-12-06T09:07:38.548Z,3188
2016-12-06T09:08:47.477Z,3212
2016-12-06T09:09:56.358Z,3236
2016-12-06T09:11:05.558Z,3256
2016-12-06T09:12:14.122Z,3292
2016-12-06T09:13:22.708Z,3304
2016-12-06T09:14:31.379Z,3328
2016-12-06T09:15:39.947Z,3348
2016-12-06T09:16:48.841Z,3368
2016-12-06T09:17:57.745Z,3376
2016-12-06T09:19:06.309Z,3372
2016-12-06T09:20:14.921Z,3368
2016-12-06T09:21:23.487Z,3380
2016-12-06T09:22:32.368Z,3396
2016-12-06T09:23:41.249Z,3428
2016-12-06T09:24:49.811Z,3448
2016-12-06T09:25:58.421Z,3456
2016-12-06T09:27:07.303Z,3460
2016-12-06T09:28:16.184Z,3456
2016-12-06T09:29:24.747Z,3452
2016-12-06T09:30:33.307Z,3464
2016-12-06T09:31:42.905Z,3468
2016-12-06T09:32:51.783Z,3488
2016-12-06T09:34:00.683Z,3504
2016-12-06T09:35:09.572Z,3516
2016-12-06T09:36:18.137Z,3528
2016-12-06T09:37:27.102Z,3540
2016-12-06T09:38:35.983Z,3552
2016-12-06T09:39:44.864Z,3564
2016-12-06T09:40:53.430Z,3580
2016-12-06T09:42:01.997Z,3596
2016-12-06T09:43:10.982Z,3608
2016-12-06T09:44:19.866Z,3616
2016-12-06T09:45:28.431Z,3632
2016-12-06T09:46:37.628Z,3648
2016-12-06T09:47:46.516Z,3664
2016-12-06T09:48:55.807Z,3672
2016-12-06T09:50:04.688Z,3688
2016-12-06T09:51:13.252Z,3700
2016-12-06T09:52:22.145Z,3708
2016-12-06T09:53:30.705Z,3716
2016-12-06T09:54:40.687Z,3728
2016-12-06T09:55:49.565Z,3736
2016-12-06T09:56:58.150Z,3748
2016-12-06T09:58:06.723Z,3756
2016-12-06T09:59:15.289Z,3768
2016-12-06T10:00:23.952Z,3784
2016-12-06T10:01:32.513Z,3792
2016-12-06T10:02:41.073Z,3800
2016-12-06T10:03:49.956Z,3812
2016-12-06T10:04:58.519Z,3820
2016-12-06T10:06:07.181Z,3828
2016-12-06T10:07:15.742Z,3840
2016-12-06T10:08:24.312Z,3848
2016-12-06T10:09:33.212Z,3860
2016-12-06T10:10:42.092Z,3868
2016-12-06T10:11:51.019Z,3880
2016-12-06T10:12:59.583Z,3888
2016-12-06T10:14:08.783Z,3900
2016-12-06T10:15:17.346Z,3912
2016-12-06T10:16:26.232Z,3920
2016-12-06T10:17:34.896Z,3928
2016-12-06T10:18:43.461Z,3936
2016-12-06T10:19:52.020Z,3944
2016-12-06T10:21:00.583Z,3952
2016-12-06T10:22:09.779Z,3956
2016-12-06T10:23:18.689Z,3964
2016-12-06T10:24:27.250Z,3968
2016-12-06T10:25:36.135Z,3972
2016-12-06T10:26:45.331Z,3976
2016-12-06T10:27:54.530Z,3980
2016-12-06T10:29:03.187Z,3980
2016-12-06T10:30:12.432Z,3984
2016-12-06T10:31:21.660Z,3992
2016-12-06T10:32:30.226Z,4000
2016-12-06T10:33:38.786Z,4004
2016-12-06T10:34:47.449Z,4004
2016-12-06T10:35:56.653Z,4012
2016-12-06T10:37:05.536Z,4016
2016-12-06T10:38:14.414Z,4020
2016-12-06T10:39:23.294Z,4024
2016-12-06T10:40:31.964Z,4028
2016-12-06T10:41:40.846Z,4040
2016-12-06T10:42:49.732Z,4036
2016-12-06T10:43:58.620Z,4044
2016-12-06T10:45:07.181Z,4052
2016-12-06T10:46:16.517Z,4060
2016-12-06T10:47:25.083Z,4068
2016-12-06T10:48:33.644Z,4068
2016-12-06T10:49:42.530Z,4080
2016-12-06T10:50:51.415Z,4076
2016-12-06T10:52:00.429Z,4080
2016-12-06T10:53:08.993Z,4084
2016-12-06T10:54:18.186Z,4092
2016-12-06T10:55:26.753Z,4092
2016-12-06T10:56:35.345Z,4100
2016-12-06T10:57:44.626Z,4100
2016-12-06T10:58:53.190Z,4108
2016-12-06T11:00:01.748Z,4112
2016-12-06T11:01:10.634Z,4108
2016-12-06T11:02:19.519Z,4116
2016-12-06T11:03:28.209Z,4116
2016-12-06T11:04:37.104Z,4124
2016-12-06T11:05:46.311Z,4120
2016-12-06T11:06:55.192Z,4124
2016-12-06T11:08:04.080Z,4124
2016-12-06T11:09:13.009Z,4132
2016-12-06T11:10:21.890Z,4128
2016-12-06T11:11:30.450Z,4132
2016-12-06T11:12:39.015Z,4132
2016-12-06T11:13:47.895Z,4132
2016-12-06T11:14:56.859Z,4140
2016-12-06T11:16:05.741Z,4148
2016-12-06T11:17:14.302Z,4144
2016-12-06T11:18:23.185Z,4148
2016-12-06T11:19:31.748Z,4148
2016-12-06T11:20:40.366Z,4160
2016-12-06T11:21:49.253Z,4164
2016-12-06T11:22:57.832Z,4168
2016-12-06T11:24:07.033Z,4172
2016-12-06T11:25:15.921Z,4180
2016-12-06T11:26:24.584Z,4184
2016-12-06T11:27:33.471Z,4192
2016-12-06T11:28:42.047Z,4200
2016-12-06T11:29:50.929Z,4204
2016-12-06T11:31:00.133Z,4208
2016-12-06T11:32:09.095Z,4212
2016-12-06T11:33:18.309Z,4208
2016-12-06T11:34:26.870Z,4216
2016-12-06T11:35:35.926Z,4232
2016-12-06T11:36:45.182Z,4232
2016-12-06T11:37:54.514Z,4232
2016-12-06T11:39:03.392Z,4232
2016-12-06T11:40:11.952Z,4236
2016-12-06T11:41:20.836Z,4240
2016-12-06T11:42:30.043Z,4240
2016-12-06T11:43:39.022Z,4244
2016-12-06T11:44:47.588Z,4252
2016-12-06T11:45:56.487Z,4248
2016-12-06T11:47:05.370Z,4252
2016-12-06T11:48:13.962Z,4264
2016-12-06T11:49:22.628Z,4264
2016-12-06T11:50:31.220Z,4264
2016-12-06T11:51:39.785Z,4268
2016-12-06T11:52:48.360Z,4272
2016-12-06T11:53:56.933Z,4264
2016-12-06T11:55:06.585Z,4268
2016-12-06T11:56:15.145Z,4268
2016-12-06T11:57:24.024Z,4268
2016-12-06T11:58:32.909Z,4268
2016-12-06T11:59:41.509Z,4272
2016-12-06T12:00:50.849Z,4268
2016-12-06T12:01:59.413Z,4276
2016-12-06T12:03:08.297Z,4268
2016-12-06T12:04:16.857Z,4268
2016-12-06T12:05:25.740Z,4264
2016-12-06T12:06:34.354Z,4264
2016-12-06T12:07:42.915Z,4260
2016-12-06T12:08:51.802Z,4264
2016-12-06T12:10:00.684Z,4264
2016-12-06T12:11:09.250Z,4264
2016-12-06T12:12:18.434Z,4264
2016-12-06T12:13:27.322Z,4264
2016-12-06T12:14:36.524Z,4260
2016-12-06T12:15:45.090Z,4256
2016-12-06T12:16:54.314Z,4256
2016-12-06T12:18:03.298Z,4252
2016-12-06T12:19:12.179Z,4256
2016-12-06T12:20:21.068Z,4256
2016-12-06T12:21:30.267Z,4252
2016-12-06T12:22:38.832Z,4248
2016-12-06T12:23:47.463Z,4248
2016-12-06T12:24:56.675Z,4244
2016-12-06T12:26:05.558Z,4244
2016-12-06T12:27:14.439Z,4240
2016-12-06T12:28:23.325Z,4236
2016-12-06T12:29:32.892Z,4236
2016-12-06T12:30:41.784Z,4232
2016-12-06T12:31:50.363Z,4228
2016-12-06T12:32:59.251Z,4224
2016-12-06T12:34:08.455Z,4212
2016-12-06T12:35:17.070Z,4204
2016-12-06T12:36:25.962Z,4200
2016-12-06T12:37:34.529Z,4200
2016-12-06T12:38:43.095Z,4184
2016-12-06T12:39:51.659Z,4172
2016-12-06T12:41:00.917Z,4168
2016-12-06T12:42:09.481Z,4152
2016-12-06T12:43:18.053Z,4140
2016-12-06T12:44:26.928Z,4128
2016-12-06T12:45:35.816Z,4120
2016-12-06T12:46:44.799Z,4108
2016-12-06T12:47:53.360Z,4092
2016-12-06T12:49:02.247Z,4084
2016-12-06T12:50:10.811Z,4068
2016-12-06T12:51:20.009Z,4052
2016-12-06T12:52:28.625Z,4044
2016-12-06T12:53:37.515Z,4040
2016-12-06T12:54:46.077Z,4028
2016-12-06T12:55:54.969Z,4016
2016-12-06T12:57:03.857Z,4012
2016-12-06T12:58:13.091Z,4000
2016-12-06T12:59:21.654Z,3992
2016-12-06T13:00:30.862Z,3988
2016-12-06T13:01:39.426Z,3972
2016-12-06T13:02:48.303Z,3968
2016-12-06T13:03:57.167Z,3964
2016-12-06T13:05:05.730Z,3956
2016-12-06T13:06:14.294Z,3948
2016-12-06T13:07:23.491Z,3940
2016-12-06T13:08:32.056Z,3932
2016-12-06T13:09:41.393Z,3924
2016-12-06T13:10:49.959Z,3920
2016-12-06T13:11:59.162Z,3912
2016-12-06T13:13:08.366Z,3900
2016-12-06T13:14:17.250Z,3892
2016-12-06T13:15:26.580Z,3884
2016-12-06T13:16:35.146Z,3868
2016-12-06T13:17:43.713Z,3864
2016-12-06T13:18:52.274Z,3852
2016-12-06T13:20:00.838Z,3836
2016-12-06T13:21:10.021Z,3828
2016-12-06T13:22:19.541Z,3816
2016-12-06T13:23:28.428Z,3800
2016-12-06T13:24:37.334Z,3784
2016-12-06T13:25:46.215Z,3768
2016-12-06T13:26:54.851Z,3756
2016-12-06T13:28:03.416Z,3744
2016-12-06T13:29:12.300Z,3728
2016-12-06T13:30:20.869Z,3704
2016-12-06T13:31:30.080Z,3692
2016-12-06T13:32:39.023Z,3672
2016-12-06T13:33:47.590Z,3652
2016-12-06T13:34:57.113Z,3632
2016-12-06T13:36:06.346Z,3608
2016-12-06T13:37:14.905Z,3588
2016-12-06T13:38:24.163Z,3560
2016-12-06T13:39:33.043Z,3544
2016-12-06T13:40:41.607Z,3492
2016-12-06T13:41:50.829Z,3480
2016-12-06T13:42:59.739Z,3468
2016-12-06T13:44:08.723Z,3436
2016-12-06T13:45:17.287Z,3408
2016-12-06T13:46:26.174Z,3376
2016-12-06T13:47:34.738Z,3356
2016-12-06T13:48:43.939Z,3328
2016-12-06T13:49:52.871Z,3304
2016-12-06T13:51:01.437Z,3280
2016-12-06T13:52:10.025Z,3248
2016-12-06T13:53:18.920Z,3212
2016-12-06T13:54:27.803Z,3180
2016-12-06T13:55:36.768Z,3148
2016-12-06T13:56:45.656Z,3116
2016-12-06T13:57:54.857Z,3076
2016-12-06T13:59:03.742Z,3056
2016-12-06T14:00:12.337Z,3028
2016-12-06T14:01:21.578Z,2992
2016-12-06T14:02:30.487Z,2964
2016-12-06T14:03:39.374Z,2924
2016-12-06T14:04:48.254Z,2904
2016-12-06T14:05:57.141Z,2848
2016-12-06T14:07:06.155Z,2776
2016-12-06T14:08:15.039Z,2740
2016-12-06T14:09:23.923Z,2688
2016-12-06T14:10:32.482Z,2628
2016-12-06T14:11:41.079Z,2640
2016-12-06T14:12:50.310Z,2604
2016-12-06T14:13:59.513Z,2560
2016-12-06T14:15:08.403Z,2500
2016-12-06T14:16:17.285Z,2416
2016-12-06T14:17:26.170Z,2416
2016-12-06T14:18:35.405Z,2392
2016-12-06T14:19:43.965Z,2392
2016-12-06T14:20:52.849Z,2336
2016-12-06T14:22:01.448Z,2288
2016-12-06T14:23:10.038Z,2168
2016-12-06T14:24:18.652Z,2120
2016-12-06T14:25:27.215Z,2060
2016-12-06T14:26:36.413Z,1980
2016-12-06T14:27:44.978Z,1888
2016-12-06T14:28:53.540Z,1812
2016-12-06T14:30:02.463Z,1748
2016-12-06T14:31:11.346Z,1684
2016-12-06T14:32:20.225Z,1588
2016-12-06T14:33:29.106Z,1508
2016-12-06T14:34:38.009Z,1448
2016-12-06T14:35:46.987Z,1408
2016-12-06T14:36:55.877Z,1356
2016-12-06T14:38:04.784Z,1300
2016-12-06T14:39:13.345Z,1236
2016-12-06T14:40:22.549Z,1176
2016-12-06T14:41:31.165Z,1108
2016-12-06T14:42:40.369Z,1060
2016-12-06T14:43:48.933Z,1000
2016-12-06T14:44:57.525Z,944
2016-12-06T14:46:06.091Z,888
2016-12-06T14:47:15.741Z,832
2016-12-06T14:48:24.620Z,780
2016-12-06T14:49:33.181Z,736
2016-12-06T14:50:41.743Z,696
2016-12-06T14:51:50.937Z,652
2016-12-06T14:52:59.597Z,616
2016-12-06T14:54:08.479Z,588
2016-12-06T14:55:17.044Z,556
2016-12-06T14:56:25.606Z,532
2016-12-06T14:57:34.175Z,504
2016-12-06T14:58:43.507Z,476
2016-12-06T14:59:52.080Z,452
2016-12-06T15:01:00.643Z,424
2016-12-06T15:02:09.535Z,400
2016-12-06T15:03:18.418Z,372
2016-12-06T15:04:28.295Z,352
2016-12-06T15:05:37.179Z,324
2016-12-06T15:06:46.064Z,304
2016-12-06T15:07:54.951Z,284
2016-12-06T15:09:03.833Z,264
2016-12-06T15:10:12.744Z,240
2016-12-06T15:11:21.306Z,220
2016-12-06T15:12:30.189Z,200
2016-12-06T15:13:38.769Z,184
2016-12-06T15:14:47.336Z,164
2016-12-06T15:15:56.587Z,152
2016-12-06T15:17:05.791Z,136
2016-12-06T15:18:14.354Z,120
2016-12-06T15:19:22.916Z,104
2016-12-06T15:20:31.476Z,92
2016-12-06T15:21:40.405Z,84
2016-12-06T15:22:48.972Z,72
2016-12-06T15:23:57.531Z,64
2016-12-06T15:25:06.413Z,52
2016-12-06T15:26:14.976Z,48
2016-12-06T15:27:24.278Z,40
2016-12-06T15:28:32.846Z,36
2016-12-06T15:29:41.429Z,32
2016-12-06T15:30:49.990Z,24
2016-12-06T15:31:59.186Z,20
2016-12-06T15:33:07.863Z,16
2016-12-06T15:34:16.426Z,12
2016-12-06T15:35:25.014Z,12
2016-12-06T15:36:33.575Z,12
2016-12-06T15:37:42.776Z,8
2016-12-06T15:38:51.710Z,8
2016-12-06T15:40:00.271Z,4
2016-12-06T15:41:08.837Z,4
2016-12-06T15:42:17.739Z,4
2016-12-06T15:43:26.300Z,0
2016-12-06T15:44:35.873Z,4
2016-12-06T15:45:44.438Z,4
2016-12-06T15:46:53.009Z,0
2016-12-06T15:48:01.614Z,0
2016-12-06T15:49:10.178Z,0
2016-12-06T15:50:18.844Z,0
2016-12-06T15:51:27.726Z,0
2016-12-06T15:52:36.615Z,0
2016-12-06T15:53:45.179Z,0
2016-12-06T15:54:53.742Z,0
2016-12-06T15:56:02.975Z,0
2016-12-06T15:57:12.177Z,0
2016-12-06T15:58:21.699Z,0
2016-12-06T15:59:30.581Z,0
2016-12-06T16:00:39.459Z,0
2016-12-06T16:01:48.405Z,0
2016-12-06T16:02:56.966Z,0
2016-12-06T16:04:05.847Z,0
2016-12-06T16:05:15.365Z,0